createdAt,value
2023-06-27T00:02:47.711Z,7.07
2023-06-27T00:07:50.404Z,11.82
2023-06-27T00:12:54.150Z,9.73
2023-06-27T00:17:57.184Z,6.88
2023-06-27T00:23:17.514Z,9.90
2023-06-27T00:28:20.025Z,6.90
2023-06-27T00:33:22.658Z,6.03
2023-06-27T00:38:26.729Z,10.60
2023-06-27T00:43:29.798Z,5.70
2023-06-27T00:48:33.483Z,6.35
2023-06-27T00:53:36.166Z,5.15
2023-06-27T00:58:38.618Z,7.28
2023-06-27T01:03:41.128Z,6.07
2023-06-27T01:08:52.259Z,9.57
2023-06-27T01:13:59.318Z,7.20
2023-06-27T01:19:04.574Z,5.60
2023-06-27T01:24:08.962Z,8.40
2023-06-27T01:29:12.568Z,11.05
2023-06-27T01:34:35.079Z,6.22
2023-06-27T01:39:44.131Z,6.07
2023-06-27T01:44:47.923Z,9.10
2023-06-27T01:49:51.687Z,4.88
2023-06-27T01:54:54.236Z,4.88
2023-06-27T01:59:56.770Z,4.43
2023-06-27T02:04:59.210Z,7.05
2023-06-27T02:10:01.957Z,4.25
2023-06-27T02:15:04.910Z,8.10
2023-06-27T02:20:08.102Z,5.82
2023-06-27T02:25:10.642Z,4.20
2023-06-27T02:30:14.072Z,5.30
2023-06-27T02:35:17.515Z,8.57
2023-06-27T02:40:20.220Z,4.85
2023-06-27T02:45:22.785Z,3.20
2023-06-27T02:50:25.417Z,3.63
2023-06-27T02:55:28.020Z,3.40
2023-06-27T03:00:30.538Z,5.88
2023-06-27T03:05:33.897Z,7.10
2023-06-27T03:10:36.716Z,7.72
2023-06-27T03:15:39.765Z,7.03
2023-06-27T03:20:43.799Z,4.03
2023-06-27T03:25:46.295Z,8.45
2023-06-27T03:30:48.832Z,9.35
2023-06-27T03:35:52.601Z,7.75
2023-06-27T03:40:55.237Z,4.55
2023-06-27T03:45:57.777Z,4.97
2023-06-27T03:51:00.396Z,8.77
2023-06-27T03:56:03.941Z,6.50
2023-06-27T04:01:07.891Z,8.20
2023-06-27T04:06:10.555Z,5.03
2023-06-27T04:11:13.164Z,5.75
2023-06-27T04:16:15.848Z,4.03
2023-06-27T04:21:20.093Z,7.95
2023-06-27T04:26:23.000Z,5.63
2023-06-27T04:31:27.064Z,9.60
2023-06-27T04:36:29.955Z,9.43
2023-06-27T04:41:32.447Z,4.80
2023-06-27T04:46:34.969Z,10.20
2023-06-27T04:51:37.524Z,4.97
2023-06-27T04:56:40.895Z,6.72
2023-06-27T05:01:43.324Z,4.57
2023-06-27T05:06:45.811Z,4.03
2023-06-27T05:11:48.336Z,5.25
2023-06-27T05:16:54.902Z,3.75
2023-06-27T05:21:57.715Z,9.15
2023-06-27T05:27:00.439Z,2.20
2023-06-27T05:32:03.201Z,5.95
2023-06-27T05:37:05.874Z,6.88
2023-06-27T05:42:09.313Z,8.98
2023-06-27T05:47:12.089Z,3.50
2023-06-27T05:52:14.830Z,3.90
2023-06-27T05:57:17.450Z,3.95
2023-06-27T06:02:20.217Z,3.63
2023-06-27T06:07:25.019Z,4.10
2023-06-27T06:12:27.677Z,7.50
2023-06-27T06:17:30.225Z,4.18
2023-06-27T06:22:32.742Z,11.23
2023-06-27T06:27:35.352Z,7.35
2023-06-27T06:32:38.010Z,4.53
2023-06-27T06:37:40.609Z,5.03
2023-06-27T06:42:43.304Z,2.65
2023-06-27T06:47:46.006Z,7.45
2023-06-27T06:52:48.870Z,3.90
2023-06-27T06:57:51.427Z,9.93
2023-06-27T07:02:54.094Z,7.18
2023-06-27T07:07:57.233Z,5.38
2023-06-27T07:13:01.182Z,5.43
2023-06-27T07:18:03.853Z,6.28
2023-06-27T07:23:06.655Z,10.20
2023-06-27T07:28:09.342Z,7.95
2023-06-27T07:33:11.904Z,6.03
2023-06-27T07:38:17.332Z,11.88
2023-06-27T07:43:19.902Z,11.52
2023-06-27T07:48:22.432Z,25.83
2023-06-27T07:53:24.875Z,6.15
2023-06-27T07:58:27.381Z,11.98
2023-06-27T08:03:29.926Z,12.52
2023-06-27T08:08:32.997Z,10.48
2023-06-27T08:13:40.023Z,10.70
2023-06-27T08:18:42.613Z,17.13
2023-06-27T08:23:45.524Z,6.97
2023-06-27T08:28:47.978Z,7.32
2023-06-27T08:33:50.484Z,6.63
2023-06-27T08:38:53.100Z,12.38
2023-06-27T08:43:57.163Z,9.75
2023-06-27T08:49:04.161Z,15.05
2023-06-27T08:54:15.869Z,9.43
2023-06-27T08:59:20.935Z,4.60
2023-06-27T09:04:24.102Z,7.15
2023-06-27T09:09:27.215Z,6.38
2023-06-27T09:14:29.863Z,5.43
2023-06-27T09:19:33.995Z,7.05
2023-06-27T09:24:41.945Z,6.47
2023-06-27T09:29:44.878Z,5.18
2023-06-27T09:34:47.447Z,7.28
2023-06-27T09:39:50.377Z,6.68
2023-06-27T09:44:53.159Z,4.07
2023-06-27T09:49:55.668Z,4.70
2023-06-27T09:54:58.803Z,4.82
2023-06-27T10:00:01.349Z,5.40
2023-06-27T10:05:04.875Z,1.60
2023-06-27T10:10:08.610Z,2.17
2023-06-27T10:15:12.143Z,2.55
2023-06-27T10:20:14.830Z,3.88
2023-06-27T10:25:19.251Z,4.75
2023-06-27T10:30:21.747Z,4.78
2023-06-27T10:35:26.228Z,2.35
2023-06-27T10:40:30.706Z,4.28
2023-06-27T10:45:33.223Z,2.22
2023-06-27T10:50:38.850Z,5.22
2023-06-27T10:55:41.380Z,2.03
2023-06-27T11:00:48.400Z,2.92
2023-06-27T11:05:58.362Z,5.03
2023-06-27T11:11:00.870Z,2.17
2023-06-27T11:16:04.098Z,3.10
2023-06-27T11:21:06.717Z,3.25
2023-06-27T11:26:09.151Z,3.03
2023-06-27T11:31:11.768Z,5.45
2023-06-27T11:36:14.315Z,2.33
2023-06-27T11:41:23.820Z,3.60
2023-06-27T11:46:26.888Z,5.60
2023-06-27T11:51:40.148Z,4.38
2023-06-27T11:56:43.516Z,1.80
2023-06-27T12:01:46.743Z,6.70
2023-06-27T12:06:50.242Z,4.13
2023-06-27T12:11:56.171Z,5.88
2023-06-27T12:17:01.415Z,5.85
2023-06-27T12:22:03.985Z,4.20
2023-06-27T12:27:06.574Z,1.90
2023-06-27T12:32:09.007Z,3.10
2023-06-27T12:37:11.628Z,4.90
2023-06-27T12:42:14.097Z,3.88
2023-06-27T12:47:16.820Z,4.93
2023-06-27T12:52:19.465Z,4.97
2023-06-27T12:57:21.991Z,3.33
2023-06-27T13:02:24.758Z,4.18
2023-06-27T13:07:27.328Z,2.67
2023-06-27T13:12:30.736Z,4.10
2023-06-27T13:17:33.425Z,6.88
2023-06-27T13:22:36.310Z,4.07
2023-06-27T13:27:38.848Z,4.47
2023-06-27T13:32:41.493Z,3.28
2023-06-27T13:37:59.680Z,5.47
2023-06-27T13:43:03.923Z,5.28
2023-06-27T13:48:07.685Z,3.10
2023-06-27T13:53:10.243Z,2.45
2023-06-27T13:58:13.652Z,2.90
2023-06-27T14:03:16.405Z,5.85
2023-06-27T14:08:19.457Z,3.50
2023-06-27T14:13:22.117Z,2.63
2023-06-27T14:18:24.577Z,4.95
2023-06-27T14:23:28.883Z,3.80
2023-06-27T14:28:33.981Z,3.65
2023-06-27T14:33:36.780Z,1.67
2023-06-27T14:38:39.272Z,7.05
2023-06-27T14:43:41.985Z,2.33
2023-06-27T14:48:44.572Z,2.50
2023-06-27T14:53:47.470Z,4.28
2023-06-27T14:58:50.103Z,2.33
2023-06-27T15:03:53.282Z,4.45
2023-06-27T15:08:57.403Z,2.13
2023-06-27T15:13:59.987Z,2.25
2023-06-27T15:19:02.646Z,1.85
2023-06-27T15:24:07.293Z,1.90
2023-06-27T15:29:09.837Z,4.05
2023-06-27T15:34:12.357Z,1.38
2023-06-27T15:39:14.914Z,1.92
2023-06-27T15:44:17.468Z,2.60
2023-06-27T15:49:20.242Z,2.17
2023-06-27T15:54:22.905Z,2.75
2023-06-27T15:59:25.490Z,1.30
2023-06-27T16:04:28.240Z,2.08
2023-06-27T16:09:30.813Z,2.20
2023-06-27T16:14:33.316Z,5.20
2023-06-27T16:19:36.128Z,1.15
2023-06-27T16:24:38.648Z,1.25
2023-06-27T16:29:41.452Z,4.63
2023-06-27T16:34:44.014Z,1.15
2023-06-27T16:39:46.661Z,1.65
2023-06-27T16:44:49.168Z,1.65
2023-06-27T16:49:53.873Z,2.28
2023-06-27T16:54:56.370Z,0.88
2023-06-27T17:00:02.973Z,1.27
2023-06-27T17:05:06.242Z,1.15
2023-06-27T17:10:08.936Z,0.75
2023-06-27T17:15:11.742Z,4.28
2023-06-27T17:20:14.449Z,1.27
2023-06-27T17:25:18.480Z,2.67
2023-06-27T17:30:21.498Z,2.22
2023-06-27T17:35:23.984Z,3.58
2023-06-27T17:40:26.701Z,2.47
2023-06-27T17:45:29.091Z,2.03
2023-06-27T17:50:31.990Z,3.80
2023-06-27T17:55:34.481Z,0.73
2023-06-27T18:00:37.270Z,0.77
2023-06-27T18:05:39.976Z,1.27
2023-06-27T18:10:43.935Z,1.65
2023-06-27T18:15:46.961Z,1.02
2023-06-27T18:20:49.554Z,1.65
2023-06-27T18:25:52.256Z,1.08
2023-06-27T18:30:55.088Z,1.35
2023-06-27T18:35:59.453Z,1.40
2023-06-27T18:41:02.016Z,1.42
2023-06-27T18:46:05.104Z,2.05
2023-06-27T18:51:07.473Z,1.13
2023-06-27T18:56:10.053Z,1.45
2023-06-27T19:01:12.678Z,1.88
2023-06-27T19:06:15.265Z,3.17
2023-06-27T19:11:17.846Z,0.77
2023-06-27T19:16:20.432Z,1.50
2023-06-27T19:21:23.823Z,0.88
2023-06-27T19:26:26.367Z,0.73
2023-06-27T19:31:28.911Z,1.33
2023-06-27T19:36:31.519Z,1.30
2023-06-27T19:41:34.333Z,1.50
2023-06-27T19:46:36.921Z,2.72
2023-06-27T19:51:39.398Z,2.38
2023-06-27T19:56:41.952Z,1.45
2023-06-27T20:01:44.582Z,2.35
2023-06-27T20:06:47.343Z,1.10
2023-06-27T20:11:49.903Z,2.38
2023-06-27T20:16:53.030Z,0.70
2023-06-27T20:21:55.545Z,1.10
2023-06-27T20:26:58.063Z,2.33
2023-06-27T20:32:00.489Z,2.47
2023-06-27T20:37:03.121Z,1.05
2023-06-27T20:42:05.831Z,1.02
2023-06-27T20:47:08.416Z,2.40
2023-06-27T20:52:11.070Z,2.10
2023-06-27T20:57:13.639Z,2.63
2023-06-27T21:02:16.871Z,1.92
2023-06-27T21:07:19.797Z,1.30
2023-06-27T21:12:22.936Z,1.13
2023-06-27T21:17:28.407Z,1.58
2023-06-27T21:22:30.981Z,2.05
2023-06-27T21:27:50.300Z,0.88
2023-06-27T21:32:55.103Z,1.38
2023-06-27T21:37:57.718Z,1.23
2023-06-27T21:43:01.877Z,3.63
2023-06-27T21:48:04.801Z,1.13
2023-06-27T21:53:07.737Z,1.10
2023-06-27T21:58:10.179Z,1.13
2023-06-27T22:03:15.043Z,3.50
2023-06-27T22:08:17.950Z,1.77
2023-06-27T22:13:20.656Z,1.33
2023-06-27T22:18:23.453Z,0.70
2023-06-27T22:23:26.055Z,1.60
2023-06-27T22:28:28.653Z,1.02
2023-06-27T22:33:31.103Z,1.92
2023-06-27T22:38:33.651Z,3.00
2023-06-27T22:43:36.337Z,1.77
2023-06-27T22:48:38.981Z,1.48
2023-06-27T22:53:45.146Z,1.63
2023-06-27T22:58:47.632Z,0.95
2023-06-27T23:03:50.195Z,2.28
2023-06-27T23:08:52.834Z,1.10
2023-06-27T23:13:55.768Z,1.35
2023-06-27T23:19:01.443Z,1.42
2023-06-27T23:24:04.306Z,2.58
2023-06-27T23:29:07.139Z,1.27
2023-06-27T23:34:12.294Z,2.40
2023-06-27T23:39:14.804Z,1.05
2023-06-27T23:44:17.324Z,1.73
2023-06-27T23:49:19.891Z,0.90
2023-06-27T23:54:22.337Z,1.25
2023-06-27T23:59:25.003Z,1.02
